createdAt,value
2023-06-22T00:02:54.377Z,21.17
2023-06-22T00:07:57.292Z,21.13
2023-06-22T00:13:00.224Z,21.10
2023-06-22T00:18:03.843Z,21.07
2023-06-22T00:23:11.105Z,21.07
2023-06-22T00:28:13.894Z,21.12
2023-06-22T00:33:17.697Z,21.12
2023-06-22T00:38:21.880Z,21.11
2023-06-22T00:43:24.677Z,21.11
2023-06-22T00:48:27.939Z,21.08
2023-06-22T00:53:34.643Z,21.06
2023-06-22T00:58:39.003Z,21.04
2023-06-22T01:03:41.903Z,21.04
2023-06-22T01:08:52.881Z,21.07
2023-06-22T01:14:07.824Z,21.01
2023-06-22T01:19:28.851Z,20.88
2023-06-22T01:24:43.036Z,20.74
2023-06-22T01:29:46.806Z,20.62
2023-06-22T01:34:50.837Z,20.57
2023-06-22T01:39:56.216Z,20.58
2023-06-22T01:44:59.782Z,20.56
2023-06-22T01:50:04.917Z,20.48
2023-06-22T01:55:09.336Z,20.48
2023-06-22T02:00:20.149Z,20.48
2023-06-22T02:05:26.385Z,20.38
2023-06-22T02:10:30.718Z,20.29
2023-06-22T02:15:34.822Z,20.18
2023-06-22T02:20:42.553Z,20.03
2023-06-22T02:25:45.630Z,19.94
2023-06-22T02:30:48.434Z,19.81
2023-06-22T02:35:53.365Z,19.69
2023-06-22T02:40:56.170Z,19.61
2023-06-22T02:45:59.627Z,19.53
2023-06-22T02:51:02.434Z,19.49
2023-06-22T02:56:08.499Z,19.45
2023-06-22T03:01:11.464Z,19.44
2023-06-22T03:06:15.442Z,19.50
2023-06-22T03:11:18.419Z,19.57
2023-06-22T03:16:21.195Z,19.64
2023-06-22T03:21:27.310Z,19.66
2023-06-22T03:26:31.239Z,19.71
2023-06-22T03:31:36.550Z,19.74
2023-06-22T03:36:39.407Z,19.75
2023-06-22T03:41:42.315Z,19.79
2023-06-22T03:46:45.174Z,19.91
2023-06-22T03:51:48.788Z,19.98
2023-06-22T03:56:51.647Z,20.14
2023-06-22T04:01:54.488Z,20.69
2023-06-22T04:06:57.294Z,22.70
2023-06-22T04:12:00.151Z,24.99
2023-06-22T04:17:03.003Z,26.66
2023-06-22T04:22:08.235Z,28.09
2023-06-22T04:27:11.118Z,29.22
2023-06-22T04:32:14.018Z,30.02
2023-06-22T04:37:17.010Z,30.43
2023-06-22T04:42:20.327Z,30.55
2023-06-22T04:47:23.156Z,30.15
2023-06-22T04:52:26.059Z,29.82
2023-06-22T04:57:34.014Z,29.89
2023-06-22T05:02:36.948Z,30.78
2023-06-22T05:07:44.927Z,31.64
2023-06-22T05:12:48.323Z,31.38
2023-06-22T05:17:52.958Z,30.99
2023-06-22T05:22:55.824Z,30.28
2023-06-22T05:27:58.834Z,28.67
2023-06-22T05:33:01.825Z,27.09
2023-06-22T05:38:04.641Z,26.06
2023-06-22T05:43:07.599Z,25.19
2023-06-22T05:48:10.429Z,24.51
2023-06-22T05:53:13.354Z,23.99
2023-06-22T05:58:16.496Z,23.67
2023-06-22T06:03:19.306Z,23.33
2023-06-22T06:08:22.530Z,22.99
2023-06-22T06:13:25.778Z,22.68
2023-06-22T06:18:28.615Z,22.49
2023-06-22T06:23:31.506Z,22.42
2023-06-22T06:28:35.046Z,22.44
2023-06-22T06:33:38.184Z,22.54
2023-06-22T06:38:47.495Z,22.43
2023-06-22T06:43:53.803Z,22.40
2023-06-22T06:48:56.783Z,22.46
2023-06-22T06:53:59.620Z,22.83
2023-06-22T06:59:02.795Z,24.47
2023-06-22T07:04:05.779Z,25.80
2023-06-22T07:09:15.317Z,25.52
2023-06-22T07:14:18.322Z,25.06
2023-06-22T07:19:32.713Z,24.65
2023-06-22T07:24:35.665Z,24.17
2023-06-22T07:29:40.908Z,23.76
2023-06-22T07:34:45.407Z,23.41
2023-06-22T07:39:54.934Z,23.27
2023-06-22T07:44:57.848Z,23.19
2023-06-22T07:50:02.823Z,23.05
2023-06-22T07:55:06.185Z,22.91
2023-06-22T08:00:16.018Z,22.89
2023-06-22T08:05:22.470Z,22.98
2023-06-22T08:10:37.676Z,23.03
2023-06-22T08:15:43.707Z,22.96
2023-06-22T08:20:46.903Z,22.76
2023-06-22T08:25:51.437Z,22.70
2023-06-22T08:30:54.542Z,22.51
2023-06-22T08:36:02.538Z,22.44
2023-06-22T08:41:05.581Z,22.54
2023-06-22T08:46:08.503Z,22.62
2023-06-22T08:51:11.400Z,22.76
2023-06-22T08:56:14.551Z,23.15
2023-06-22T09:01:17.992Z,23.62
2023-06-22T09:06:23.509Z,24.33
2023-06-22T09:11:28.909Z,25.54
2023-06-22T09:16:32.024Z,26.15
2023-06-22T09:21:35.458Z,26.52
2023-06-22T09:26:46.290Z,27.19
2023-06-22T09:31:49.278Z,27.85
2023-06-22T09:36:54.398Z,28.27
2023-06-22T09:42:01.208Z,28.28
2023-06-22T09:47:04.826Z,28.00
2023-06-22T09:52:09.163Z,27.91
2023-06-22T09:57:13.368Z,27.97
2023-06-22T10:02:18.880Z,27.86
2023-06-22T10:07:22.196Z,27.71
2023-06-22T10:12:24.966Z,27.69
2023-06-22T10:17:29.882Z,27.74
2023-06-22T10:22:32.804Z,27.73
2023-06-22T10:27:36.716Z,27.74
2023-06-22T10:32:40.312Z,27.55
2023-06-22T10:37:47.483Z,27.40
2023-06-22T10:42:51.349Z,27.69
2023-06-22T10:47:54.365Z,27.89
2023-06-22T10:53:00.339Z,27.74
2023-06-22T10:58:04.518Z,27.46
2023-06-22T11:03:11.671Z,27.24
2023-06-22T11:08:16.122Z,27.09
2023-06-22T11:13:19.773Z,26.90
2023-06-22T11:18:24.328Z,26.92
2023-06-22T11:23:28.943Z,26.86
2023-06-22T11:28:32.020Z,26.86
2023-06-22T11:33:35.152Z,26.79
2023-06-22T11:38:40.176Z,26.66
2023-06-22T11:43:42.982Z,26.50
2023-06-22T11:48:46.732Z,26.36
2023-06-22T11:53:50.196Z,26.35
2023-06-22T11:58:53.412Z,26.37
2023-06-22T12:03:56.359Z,26.33
2023-06-22T12:08:59.620Z,26.27
2023-06-22T12:14:03.709Z,26.15
2023-06-22T12:19:06.668Z,26.04
2023-06-22T12:24:09.486Z,25.96
2023-06-22T12:29:12.405Z,25.87
2023-06-22T12:34:17.025Z,25.77
2023-06-22T12:39:19.810Z,25.78
2023-06-22T12:44:22.596Z,25.63
2023-06-22T12:49:25.586Z,25.42
2023-06-22T12:54:31.379Z,25.36
2023-06-22T12:59:36.072Z,25.38
2023-06-22T13:04:39.017Z,25.48
2023-06-22T13:09:41.977Z,25.52
2023-06-22T13:14:44.869Z,25.53
2023-06-22T13:19:48.149Z,25.66
2023-06-22T13:24:51.003Z,25.90
2023-06-22T13:29:54.805Z,26.00
2023-06-22T13:34:57.624Z,26.07
2023-06-22T13:40:00.943Z,26.13
2023-06-22T13:45:04.931Z,26.00
2023-06-22T13:50:13.936Z,26.01
2023-06-22T13:55:17.114Z,26.15
2023-06-22T14:00:20.915Z,26.26
2023-06-22T14:05:23.922Z,26.28
2023-06-22T14:10:27.553Z,26.30
2023-06-22T14:15:30.671Z,26.31
2023-06-22T14:20:34.024Z,26.31
2023-06-22T14:25:37.151Z,26.30
2023-06-22T14:30:40.119Z,26.23
2023-06-22T14:35:43.017Z,26.18
2023-06-22T14:41:05.958Z,26.14
2023-06-22T14:46:11.636Z,26.07
2023-06-22T14:51:17.353Z,26.00
2023-06-22T14:56:20.722Z,25.99
2023-06-22T15:01:26.727Z,26.02
2023-06-22T15:06:29.723Z,25.99
2023-06-22T15:11:33.318Z,25.91
2023-06-22T15:16:36.147Z,25.88
2023-06-22T15:21:40.459Z,25.91
2023-06-22T15:26:43.477Z,25.88
2023-06-22T15:31:48.572Z,25.81
2023-06-22T15:36:53.142Z,25.77
2023-06-22T15:41:56.969Z,25.77
2023-06-22T15:47:00.216Z,25.71
2023-06-22T15:52:03.563Z,25.64
2023-06-22T15:57:06.656Z,25.57
2023-06-22T16:02:10.604Z,25.55
2023-06-22T16:07:14.501Z,25.51
2023-06-22T16:12:18.213Z,25.42
2023-06-22T16:17:23.858Z,25.33
2023-06-22T16:22:26.726Z,25.24
2023-06-22T16:27:33.903Z,25.19
2023-06-22T16:32:36.967Z,25.15
2023-06-22T16:37:39.842Z,25.11
2023-06-22T16:42:47.046Z,25.03
2023-06-22T16:47:51.735Z,24.97
2023-06-22T16:52:54.574Z,24.94
2023-06-22T16:57:59.574Z,24.89
2023-06-22T17:03:07.210Z,24.81
2023-06-22T17:08:15.833Z,24.73
2023-06-22T17:13:23.343Z,24.66
2023-06-22T17:18:27.363Z,24.54
2023-06-22T17:23:32.624Z,24.44
2023-06-22T17:28:53.072Z,24.35
2023-06-22T17:33:59.312Z,24.25
2023-06-22T17:39:02.100Z,24.14
2023-06-22T17:44:09.002Z,24.03
2023-06-22T17:49:15.469Z,23.91
2023-06-22T17:54:18.347Z,23.79
2023-06-22T17:59:21.352Z,23.67
2023-06-22T18:04:26.249Z,23.56
2023-06-22T18:09:30.289Z,23.47
2023-06-22T18:14:35.564Z,23.39
2023-06-22T18:19:41.821Z,23.29
2023-06-22T18:24:45.713Z,23.19
2023-06-22T18:29:51.488Z,23.07
2023-06-22T18:34:54.321Z,22.94
2023-06-22T18:39:58.571Z,22.78
2023-06-22T18:45:01.471Z,22.63
2023-06-22T18:50:09.657Z,22.46
2023-06-22T18:55:14.066Z,22.29
2023-06-22T19:00:31.634Z,22.12
2023-06-22T19:05:42.755Z,21.95
2023-06-22T19:10:45.722Z,21.77
2023-06-22T19:15:53.336Z,21.61
2023-06-22T19:21:12.054Z,21.43
2023-06-22T19:26:19.556Z,21.23
2023-06-22T19:31:24.953Z,21.07
2023-06-22T19:36:35.322Z,20.93
2023-06-22T19:41:38.439Z,20.78
2023-06-22T19:46:43.446Z,20.62
2023-06-22T19:51:46.413Z,20.46
2023-06-22T19:56:51.861Z,20.32
2023-06-22T20:01:54.801Z,20.16
2023-06-22T20:07:06.369Z,20.01
2023-06-22T20:12:24.636Z,19.88
2023-06-22T20:17:30.344Z,19.79
2023-06-22T20:22:46.627Z,19.71
2023-06-22T20:27:54.611Z,19.59
2023-06-22T20:32:57.571Z,19.44
2023-06-22T20:38:00.549Z,19.28
2023-06-22T20:43:03.649Z,19.15
2023-06-22T20:48:13.767Z,19.07
2023-06-22T20:53:18.920Z,19.00
2023-06-22T20:58:21.757Z,18.94
2023-06-22T21:03:24.630Z,18.83
2023-06-22T21:08:28.256Z,18.73
2023-06-22T21:13:31.483Z,18.62
2023-06-22T21:18:34.299Z,18.54
2023-06-22T21:23:37.150Z,18.48
2023-06-22T21:28:39.994Z,18.41
2023-06-22T21:33:42.970Z,18.34
2023-06-22T21:38:45.890Z,18.27
2023-06-22T21:43:49.838Z,18.18
2023-06-22T21:48:52.616Z,18.08
2023-06-22T21:53:55.552Z,18.00
2023-06-22T21:58:58.337Z,17.96
2023-06-22T22:04:01.211Z,17.92
2023-06-22T22:09:05.411Z,17.86
2023-06-22T22:14:09.940Z,17.77
2023-06-22T22:19:13.840Z,17.69
2023-06-22T22:24:16.630Z,17.59
2023-06-22T22:29:19.874Z,17.51
2023-06-22T22:34:22.789Z,17.46
2023-06-22T22:39:39.322Z,17.42
2023-06-22T22:44:42.900Z,17.37
2023-06-22T22:49:46.227Z,17.31
2023-06-22T22:54:49.475Z,17.25
2023-06-22T22:59:52.355Z,17.21
2023-06-22T23:05:00.078Z,17.16
2023-06-22T23:10:03.056Z,17.09
2023-06-22T23:15:08.222Z,17.01
2023-06-22T23:20:15.585Z,16.95
2023-06-22T23:25:18.898Z,16.92
2023-06-22T23:30:21.804Z,16.92
2023-06-22T23:35:24.660Z,16.89
2023-06-22T23:40:29.724Z,16.81
2023-06-22T23:45:32.814Z,16.73
2023-06-22T23:50:35.919Z,16.69
2023-06-22T23:55:39.336Z,16.66
